Time;durP1;ratioP1;P1;durP2;ratioP2;P2;SDS_P1;SDS_P2;PMS_P1;PMS_P2;Temp;Humidity;BMP_temperature;BMP_pressure;BME280_temperature;BME280_humidity;BME280_pressure;Samples;Min_cycle;Max_cycle;Signal;HPM_P1;HPM_P2
2023/06/21 00:00:38;;;;;;;;;;;26.50;83.60;;;26.69;49.18;98480.31;5030375;27;118459;-75
2023/06/21 00:03:04;;;;;;;;;;;26.50;83.70;;;26.67;49.26;98475.03;5031113;27;118612;-75
2023/06/21 00:05:31;;;;;;;;;;;26.50;84.40;;;26.65;49.25;98476.72;5047220;27;124025;-76
2023/06/21 00:07:58;;;;;;;;;;;26.40;83.70;;;26.63;49.54;98467.84;5038287;27;123736;-75
2023/06/21 00:10:27;;;;;;;;;;;26.40;83.70;;;26.60;49.27;98469.50;5032922;27;119559;-76
2023/06/21 00:12:53;;;;;;;;;;;26.40;83.70;;;26.58;49.57;98457.00;5034483;27;118809;-75
2023/06/21 00:15:25;;;;;;;;;;;26.40;83.90;;;26.57;50.05;98461.03;5047980;27;124931;-75
2023/06/21 00:17:52;;;;;;;;;;;26.30;84.10;;;26.54;49.99;98462.72;5028339;27;122594;-75
2023/06/21 00:20:18;;;;;;;;;;;26.30;84.30;;;26.54;50.14;98459.06;5026447;27;119489;-76
2023/06/21 00:22:47;;;;;;;;;;;26.30;84.40;;;26.50;49.59;98459.09;5027809;27;119711;-75
2023/06/21 00:25:15;;;;;;;;;;;26.30;84.50;;;26.49;50.07;98456.69;5026905;28;124469;-75
2023/06/21 00:27:42;;;;;;;;;;;26.30;84.60;;;26.48;49.91;98457.94;5047043;27;124071;-75
2023/06/21 00:30:10;;;;;;;;;;;26.30;84.80;;;26.48;49.88;98461.56;5032128;27;120531;-74
2023/06/21 00:32:38;;;;;;;;;;;26.30;85.00;;;26.47;49.80;98476.19;5037460;27;119850;-74
2023/06/21 00:35:07;;;;;;;;;;;26.20;85.00;;;26.44;49.95;98472.97;5031538;27;124542;-74
2023/06/21 00:37:37;;;;;;;;;;;26.20;85.20;;;26.42;50.08;98485.94;5028612;28;123422;-75
2023/06/21 00:40:07;;;;;;;;;;;26.20;85.20;;;26.38;50.41;98479.53;5027772;28;118594;-75
2023/06/21 00:42:34;;;;;;;;;;;26.20;85.20;;;26.32;49.99;98487.69;5020497;28;118891;-74
2023/06/21 00:45:00;;;;;;;;;;;26.10;85.20;;;26.27;50.37;98482.50;5029752;27;124208;-74
2023/06/21 00:47:27;;;;;;;;;;;26.10;85.10;;;26.25;50.02;98487.00;5028126;27;123167;-74
2023/06/21 00:49:53;;;;;;;;;;;26.10;85.30;;;26.22;50.66;98480.97;5021303;28;119566;-74
2023/06/21 00:52:19;;;;;;;;;;;26.00;85.30;;;26.22;50.72;98482.97;5028647;27;118352;-75
2023/06/21 00:54:48;;;;;;;;;;;26.00;85.50;;;26.20;50.61;98493.94;5024777;28;124203;-75
2023/06/21 00:57:15;;;;;;;;;;;26.00;85.70;;;26.15;50.47;98483.91;5026344;28;123109;-74
2023/06/21 00:59:41;;;;;;;;;;;26.00;85.90;;;26.13;50.61;98485.53;5025404;28;120515;-75
2023/06/21 01:02:07;;;;;;;;;;;26.00;86.10;;;26.11;50.76;98499.31;5025234;27;117801;-75
2023/06/21 01:04:36;;;;;;;;;;;25.90;86.20;;;26.08;51.18;98483.97;5028067;28;124564;-75
2023/06/21 01:07:11;;;;;;;;;;;25.90;86.40;;;26.04;51.29;98483.25;5028618;27;124476;-75
2023/06/21 01:09:55;;;;;;;;;;;25.80;86.50;;;25.99;51.24;98493.00;5025065;27;118954;-75
2023/06/21 01:12:41;;;;;;;;;;;25.80;86.60;;;25.94;51.24;98499.13;5029134;27;118171;-75
2023/06/21 01:15:19;;;;;;;;;;;25.70;86.70;;;25.92;51.30;98498.75;5012701;27;123957;-75
2023/06/21 01:17:51;;;;;;;;;;;25.70;86.70;;;25.92;51.16;98509.25;5023432;28;124214;-75
2023/06/21 01:20:24;;;;;;;;;;;25.70;86.70;;;25.89;51.18;98505.25;5024765;28;120334;-75
2023/06/21 01:23:05;;;;;;;;;;;25.70;86.80;;;25.83;51.30;98498.44;5019556;28;119786;-75
2023/06/21 01:25:56;;;;;;;;;;;25.70;86.80;;;25.82;51.36;98513.81;5026324;27;124404;-75
2023/06/21 01:28:44;;;;;;;;;;;25.60;86.80;;;25.81;51.41;98508.56;5025835;28;124566;-76
2023/06/21 01:31:15;;;;;;;;;;;26.60;87.80;;;25.81;51.01;98512.19;5026045;27;119051;-75
2023/06/21 01:33:42;;;;;;;;;;;25.60;87.20;;;25.79;51.45;98514.63;5024666;28;119526;-77
2023/06/21 01:36:13;;;;;;;;;;;25.60;87.30;;;25.82;51.25;98515.81;5026669;28;123876;-76
2023/06/21 01:38:40;;;;;;;;;;;25.50;87.30;;;25.80;51.05;98519.09;5025990;28;123790;-77
2023/06/21 01:41:10;;;;;;;;;;;25.50;87.40;;;25.79;51.15;98517.47;5027035;28;119395;-74
2023/06/21 01:43:37;;;;;;;;;;;25.50;87.50;;;25.78;51.41;98516.66;5025330;28;118781;-74
2023/06/21 01:46:07;;;;;;;;;;;25.50;87.70;;;25.78;51.29;98518.72;5027512;28;124006;-74
2023/06/21 01:48:34;;;;;;;;;;;25.50;87.70;;;25.76;51.23;98526.81;5022128;27;124023;-74
2023/06/21 01:51:02;;;;;;;;;;;25.50;87.70;;;25.73;51.17;98525.63;5024995;28;119535;-75
2023/06/21 01:53:31;;;;;;;;;;;25.50;87.60;;;25.68;51.37;98540.22;5024165;28;117436;-75
2023/06/21 01:55:59;;;;;;;;;;;25.50;87.50;;;25.63;51.06;98549.19;5005918;28;124173;-74
2023/06/21 01:58:28;;;;;;;;;;;25.40;87.50;;;25.62;51.36;98543.94;5025865;28;123588;-74
2023/06/21 02:00:58;;;;;;;;;;;25.40;87.60;;;25.60;51.59;98550.03;5010982;28;118900;-75
2023/06/21 02:03:27;;;;;;;;;;;25.40;87.90;;;25.60;51.65;98552.06;5024562;27;119318;-74
2023/06/21 02:05:58;;;;;;;;;;;25.40;88.10;;;25.57;51.75;98551.66;5023810;27;123403;-74
2023/06/21 02:08:25;;;;;;;;;;;25.30;88.20;;;25.56;51.98;98552.91;5024295;28;124067;-75
2023/06/21 02:10:51;;;;;;;;;;;25.30;88.30;;;25.56;52.00;98563.41;5023745;28;120599;-75
2023/06/21 02:13:17;;;;;;;;;;;25.30;88.40;;;25.54;52.05;98563.81;5024311;28;119921;-75
2023/06/21 02:15:48;;;;;;;;;;;25.30;88.50;;;25.53;52.15;98567.09;5024593;28;123920;-75
2023/06/21 02:18:20;;;;;;;;;;;25.30;88.60;;;25.51;51.68;98564.66;5023922;28;124209;-75
2023/06/21 02:20:47;;;;;;;;;;;25.30;88.70;;;25.51;52.22;98578.81;5024725;27;119167;-74
2023/06/21 02:23:15;;;;;;;;;;;25.30;88.80;;;25.50;52.18;98580.03;5025107;28;118284;-74
2023/06/21 02:25:42;;;;;;;;;;;25.30;89.00;;;25.51;52.25;98573.16;5024203;27;124386;-74
2023/06/21 02:28:08;;;;;;;;;;;25.30;89.10;;;25.49;52.25;98571.97;5018027;28;123891;-74
2023/06/21 02:30:34;;;;;;;;;;;25.20;89.10;;;25.49;52.27;98564.28;5024951;28;119657;-74
2023/06/21 02:33:01;;;;;;;;;;;25.20;89.10;;;25.49;52.24;98569.13;5025039;27;119346;-74
2023/06/21 02:35:27;;;;;;;;;;;25.20;89.30;;;25.49;52.30;98567.09;5026710;27;122497;-74
2023/06/21 02:37:53;;;;;;;;;;;25.20;89.40;;;25.47;52.03;98578.06;5024855;28;124375;-74
2023/06/21 02:40:22;;;;;;;;;;;25.20;89.50;;;25.47;52.05;98578.06;5026000;28;118578;-74
2023/06/21 02:42:51;;;;;;;;;;;25.20;90.00;;;25.46;52.24;98573.59;5025714;28;119034;-74
2023/06/21 02:45:17;;;;;;;;;;;25.20;89.60;;;25.45;52.53;98565.53;5026344;28;125374;-74
2023/06/21 02:47:43;;;;;;;;;;;25.20;89.60;;;25.44;52.40;98570.41;5021269;27;123845;-74
2023/06/21 02:50:10;;;;;;;;;;;25.20;89.70;;;25.45;52.13;98571.22;5020660;28;119111;-75
2023/06/21 02:52:38;;;;;;;;;;;25.20;89.70;;;25.42;52.16;98567.19;5025756;28;118750;-74
2023/06/21 02:55:05;;;;;;;;;;;25.20;89.80;;;25.40;52.46;98575.28;5027092;28;124144;-75
2023/06/21 02:57:36;;;;;;;;;;;25.10;89.80;;;25.39;52.46;98575.69;5027481;27;123557;-75
2023/06/21 03:00:17;;;;;;;;;;;25.10;90.00;;;25.39;52.34;98581.34;5023108;28;119498;-75
2023/06/21 03:02:44;;;;;;;;;;;25.10;90.00;;;25.37;52.35;98590.25;5022991;27;119243;-75
2023/06/21 03:05:14;;;;;;;;;;;25.10;90.00;;;25.36;52.64;98597.13;5025417;28;124352;-75
2023/06/21 03:07:43;;;;;;;;;;;25.10;90.00;;;25.33;52.67;98601.63;5023393;28;124509;-75
2023/06/21 03:10:11;;;;;;;;;;;25.10;90.00;;;25.32;52.57;98607.69;5025280;28;118748;-75
2023/06/21 03:12:39;;;;;;;;;;;25.10;90.10;;;25.31;52.54;98606.88;5024354;28;118785;-74
2023/06/21 03:15:07;;;;;;;;;;;25.10;90.10;;;25.29;52.89;98603.66;5023981;28;124057;-75
2023/06/21 03:17:33;;;;;;;;;;;25.10;90.10;;;25.30;52.86;98610.91;5022044;27;123663;-76
2023/06/21 03:19:59;;;;;;;;;;;25.10;90.10;;;25.30;52.86;98625.06;5016347;28;119358;-74
2023/06/21 03:22:28;;;;;;;;;;;25.00;90.10;;;25.30;52.74;98633.53;5025999;27;117567;-75
2023/06/21 03:24:56;;;;;;;;;;;25.00;90.10;;;25.28;52.67;98636.00;5024238;27;123537;-75
2023/06/21 03:27:23;;;;;;;;;;;25.00;90.10;;;25.26;52.39;98637.63;5027644;28;123598;-76
2023/06/21 03:29:49;;;;;;;;;;;25.00;90.00;;;25.23;52.44;98636.44;5025140;28;119457;-75
2023/06/21 03:32:15;;;;;;;;;;;25.00;90.10;;;25.22;52.64;98639.66;5028354;28;118633;-75
2023/06/21 03:34:44;;;;;;;;;;;25.00;90.10;;;25.22;52.80;98642.50;5027635;28;124562;-75
2023/06/21 03:37:10;;;;;;;;;;;24.90;90.10;;;25.22;52.81;98648.94;5026564;28;124750;-75
2023/06/21 03:39:39;;;;;;;;;;;24.90;90.10;;;25.22;52.80;98660.25;5023086;28;119391;-75
2023/06/21 03:42:06;;;;;;;;;;;24.90;90.20;;;25.21;52.83;98681.28;5030187;27;118450;-74
2023/06/21 03:44:32;;;;;;;;;;;24.90;90.20;;;25.23;52.98;98724.09;5027790;28;124275;-75
2023/06/21 03:46:58;;;;;;;;;;;24.90;90.30;;;25.20;53.03;98758.03;5026937;28;124578;-75
2023/06/21 03:49:24;;;;;;;;;;;24.90;90.40;;;25.16;53.07;98758.06;5020058;27;120229;-75
2023/06/21 03:51:53;;;;;;;;;;;24.90;90.50;;;25.09;53.21;98770.19;5027620;28;119589;-76
2023/06/21 03:54:19;;;;;;;;;;;24.90;90.50;;;25.04;52.97;98815.84;5028258;28;124357;-76
2023/06/21 03:56:48;;;;;;;;;;;24.80;90.50;;;24.87;53.83;98791.28;5024909;28;124823;-75
2023/06/21 03:59:16;;;;;;;;;;;24.70;91.00;;;24.69;54.40;98769.53;5024968;28;118601;-76
2023/06/21 04:01:43;;;;;;;;;;;24.50;91.10;;;24.59;55.29;98741.31;5021756;27;118717;-75
2023/06/21 04:04:09;;;;;;;;;;;24.50;91.50;;;24.56;55.32;98723.16;5012511;28;124170;-75
2023/06/21 04:06:38;;;;;;;;;;;24.40;91.60;;;24.52;56.06;98747.78;5027867;28;124035;-75
2023/06/21 04:09:05;;;;;;;;;;;24.40;92.10;;;24.51;56.30;98751.84;5026965;28;120075;-75
2023/06/21 04:11:32;;;;;;;;;;;24.30;92.20;;;24.46;56.29;98743.78;5022510;27;118804;-76
2023/06/21 04:13:58;;;;;;;;;;;24.30;92.50;;;24.41;56.34;98744.16;5007488;28;123887;-75
2023/06/21 04:16:26;;;;;;;;;;;24.30;92.40;;;24.39;56.35;98746.56;5025886;28;123888;-75
2023/06/21 04:18:52;;;;;;;;;;;24.20;92.50;;;24.32;57.08;98733.28;5026586;28;119174;-76
2023/06/21 04:21:18;;;;;;;;;;;24.20;92.90;;;24.25;56.74;98719.97;5029326;28;117941;-75
2023/06/21 04:23:44;;;;;;;;;;;24.20;92.70;;;24.21;56.64;98716.38;5025599;28;124137;-76
2023/06/21 04:26:12;;;;;;;;;;;24.10;92.50;;;24.17;56.98;98721.22;5027300;27;124102;-75
2023/06/21 04:28:40;;;;;;;;;;;24.10;92.80;;;24.16;56.94;98722.44;5022453;28;118902;-75
2023/06/21 04:31:06;;;;;;;;;;;24.00;92.80;;;24.17;57.05;98715.56;5025316;28;118908;-75
2023/06/21 04:33:35;;;;;;;;;;;24.00;92.90;;;24.20;57.35;98726.03;5026835;28;124634;-76
2023/06/21 04:36:01;;;;;;;;;;;24.00;93.10;;;24.22;57.22;98726.44;5027531;28;123987;-75
2023/06/21 04:38:27;;;;;;;;;;;24.00;93.30;;;24.24;57.43;98726.84;5026090;28;120553;-75
2023/06/21 04:40:53;;;;;;;;;;;24.00;93.40;;;24.27;57.35;98713.13;5028902;27;119794;-76
2023/06/21 04:43:24;;;;;;;;;;;24.00;93.40;;;24.33;57.51;98722.78;5028053;27;124023;-76
2023/06/21 04:45:51;;;;;;;;;;;24.00;93.50;;;24.37;57.26;98726.44;5028542;28;123932;-75
2023/06/21 04:48:17;;;;;;;;;;;24.10;93.70;;;24.40;57.59;98722.78;5024393;27;119007;-75
2023/06/21 04:50:45;;;;;;;;;;;24.10;93.80;;;24.43;57.41;98730.44;5025408;28;120527;-76
2023/06/21 04:53:12;;;;;;;;;;;24.10;93.80;;;24.47;57.74;98739.72;5025269;28;124251;-75
2023/06/21 04:55:44;;;;;;;;;;;24.10;93.90;;;24.51;57.69;98749.00;5024972;27;123768;-75
2023/06/21 04:58:13;;;;;;;;;;;24.20;94.00;;;24.52;57.33;98741.34;5025595;28;119514;-74
2023/06/21 05:00:39;;;;;;;;;;;24.20;93.90;;;24.55;57.25;98746.97;5022928;28;119362;-75
2023/06/21 05:03:08;;;;;;;;;;;24.20;93.90;;;24.60;57.04;98749.38;5026030;27;124720;-75
2023/06/21 05:05:34;;;;;;;;;;;24.20;93.90;;;24.63;57.37;98754.19;5029438;28;123572;-75
2023/06/21 05:08:00;;;;;;;;;;;24.20;94.00;;;24.65;57.28;98757.44;5026878;28;119609;-75
2023/06/21 05:10:27;;;;;;;;;;;24.30;94.00;;;24.67;57.45;98752.19;5025207;28;118882;-75
2023/06/21 05:12:53;;;;;;;;;;;24.30;94.00;;;24.71;57.20;98762.66;5023505;27;124237;-75
2023/06/21 05:15:19;;;;;;;;;;;24.30;94.00;;;24.74;57.02;98759.03;5026796;28;123759;-75
2023/06/21 05:17:46;;;;;;;;;;;24.30;94.00;;;24.76;57.00;98759.44;5024808;28;119598;-75
2023/06/21 05:20:13;;;;;;;;;;;24.30;94.00;;;24.78;56.90;98757.00;5027186;28;119518;-75
2023/06/21 05:22:41;;;;;;;;;;;24.40;94.00;;;24.79;56.90;98752.94;5022739;28;124255;-75
2023/06/21 05:25:08;;;;;;;;;;;24.40;93.90;;;24.81;57.09;98744.88;5017179;27;123774;-76
2023/06/21 05:27:37;;;;;;;;;;;24.40;94.00;;;24.84;56.91;98735.56;5027310;28;119165;-74
2023/06/21 05:30:09;;;;;;;;;;;25.60;94.40;;;24.86;56.82;98736.78;5017065;28;120238;-75
2023/06/21 05:32:36;;;;;;;;;;;24.50;94.00;;;24.90;56.60;98748.88;5014755;27;124894;-76
2023/06/21 05:35:02;;;;;;;;;;;24.50;94.00;;;24.94;56.92;98756.53;5018592;27;123891;-75
2023/06/21 05:37:28;;;;;;;;;;;24.50;94.00;;;24.97;56.45;98750.84;5010639;27;118502;-75
2023/06/21 05:39:55;;;;;;;;;;;24.50;93.90;;;24.99;56.26;98758.94;5012628;27;118551;-75
2023/06/21 05:42:21;;;;;;;;;;;24.60;93.80;;;25.01;55.98;98757.31;5012436;28;124390;-75
2023/06/21 05:44:47;;;;;;;;;;;24.60;93.60;;;25.04;55.89;98750.84;5017195;28;123219;-75
2023/06/21 05:47:14;;;;;;;;;;;24.60;93.60;;;25.07;55.75;98754.88;5027634;28;119464;-76
2023/06/21 05:49:40;;;;;;;;;;;24.70;93.60;;;25.11;55.60;98747.94;5024522;28;118904;-75
2023/06/21 05:52:06;;;;;;;;;;;24.70;93.60;;;25.14;55.98;98749.94;5025773;28;124631;-76
2023/06/21 05:54:33;;;;;;;;;;;24.70;93.60;;;25.18;55.71;98754.84;5023036;27;124291;-75
2023/06/21 05:56:59;;;;;;;;;;;24.80;93.60;;;25.22;55.88;98739.44;5003560;28;118603;-75
2023/06/21 05:59:25;;;;;;;;;;;24.80;93.60;;;25.26;55.39;98745.91;5024542;28;118894;-76
2023/06/21 06:01:52;;;;;;;;;;;24.80;93.50;;;25.31;55.31;98753.94;5023133;27;124194;-75
2023/06/21 06:04:18;;;;;;;;;;;24.90;93.40;;;25.36;55.21;98758.34;5024534;28;122971;-75
2023/06/21 06:06:44;;;;;;;;;;;24.90;93.30;;;25.39;54.54;98745.41;5025149;28;119463;-75
2023/06/21 06:09:11;;;;;;;;;;;24.90;93.00;;;25.41;54.71;98734.47;5024301;28;117789;-75
2023/06/21 06:11:38;;;;;;;;;;;25.00;92.90;;;25.44;54.09;98734.47;5024328;27;124416;-76
2023/06/21 06:14:04;;;;;;;;;;;25.00;92.80;;;25.46;54.03;98734.84;5023161;28;123716;-76
2023/06/21 06:16:30;;;;;;;;;;;25.00;92.70;;;25.49;53.82;98738.88;5023465;28;120465;-75
2023/06/21 06:18:56;;;;;;;;;;;25.10;92.60;;;25.51;53.57;98744.94;5025131;28;119602;-75
2023/06/21 06:21:25;;;;;;;;;;;25.10;92.50;;;25.55;53.88;98757.84;5024797;28;124770;-77
2023/06/21 06:23:52;;;;;;;;;;;25.10;92.40;;;25.58;53.95;98756.22;5024704;28;123995;-76
2023/06/21 06:26:22;;;;;;;;;;;25.10;92.40;;;25.60;53.86;98762.22;5025370;27;117705;-76
2023/06/21 06:28:50;;;;;;;;;;;25.20;92.40;;;25.64;53.56;98750.91;5024126;28;119338;-75
2023/06/21 06:31:26;;;;;;;;;;;25.20;92.30;;;25.66;53.38;98742.81;5024473;27;124877;-75
2023/06/21 06:33:53;;;;;;;;;;;25.20;92.20;;;25.65;53.58;98744.81;4992118;28;123343;-77
2023/06/21 06:36:20;;;;;;;;;;;25.30;92.20;;;25.66;53.18;98745.66;5014736;28;119860;-78
2023/06/21 06:38:50;;;;;;;;;;;25.30;92.10;;;25.66;53.59;98734.31;5025038;28;120035;-77
2023/06/21 06:41:17;;;;;;;;;;;25.30;92.00;;;25.68;53.52;98749.63;5027935;28;124539;-76
2023/06/21 06:43:44;;;;;;;;;;;25.30;92.00;;;25.72;53.13;98749.63;5024532;28;124531;-77
2023/06/21 06:46:14;;;;;;;;;;;25.30;91.80;;;25.73;52.61;98754.84;5014983;28;120377;-77
2023/06/21 06:48:40;;;;;;;;;;;25.30;91.60;;;25.72;52.41;98756.09;5018242;28;119451;-77
2023/06/21 06:51:06;;;;;;;;;;;25.30;91.50;;;25.74;52.41;98764.19;5018576;28;124629;-76
2023/06/21 06:53:32;;;;;;;;;;;25.40;91.50;;;25.78;52.62;98759.28;5022908;28;124211;-76
2023/06/21 06:56:01;;;;;;;;;;;25.40;91.40;;;25.81;52.52;98769.78;5025055;28;119759;-76
2023/06/21 06:58:28;;;;;;;;;;;25.40;91.40;;;25.85;52.15;98758.47;5016822;27;117962;-75
2023/06/21 07:00:55;;;;;;;;;;;25.50;91.40;;;25.90;52.29;98758.00;4998933;27;123589;-76
2023/06/21 07:03:23;;;;;;;;;;;25.50;91.30;;;25.95;51.67;98752.72;5010090;27;122515;-77
2023/06/21 07:05:49;;;;;;;;;;;25.50;91.10;;;26.01;51.45;98767.22;5013955;28;120719;-77
2023/06/21 07:08:16;;;;;;;;;;;25.60;91.10;;;26.06;51.18;98769.63;5028872;28;119865;-77
2023/06/21 07:10:42;;;;;;;;;;;25.60;90.90;;;26.12;51.43;98759.44;5026399;28;124962;-76
2023/06/21 07:13:11;;;;;;;;;;;25.70;90.80;;;26.18;51.18;98754.91;5028421;28;124050;-78
2023/06/21 07:15:39;;;;;;;;;;;25.70;90.70;;;26.26;50.98;98754.88;5013425;28;118873;-78
2023/06/21 07:18:06;;;;;;;;;;;25.70;90.70;;;26.33;51.17;98754.78;5009013;28;119323;-78
2023/06/21 07:20:35;;;;;;;;;;;25.80;90.70;;;26.43;50.67;98743.31;5016966;28;124137;-78
2023/06/21 07:23:03;;;;;;;;;;;25.90;90.70;;;26.52;50.34;98740.06;5027605;28;125169;-78
2023/06/21 07:25:32;;;;;;;;;;;26.00;90.60;;;26.60;50.55;98732.28;5027734;27;119436;-77
2023/06/21 07:27:58;;;;;;;;;;;26.00;90.40;;;26.70;50.20;98737.00;5019014;28;118581;-78
2023/06/21 07:30:25;;;;;;;;;;;26.10;90.30;;;26.82;50.24;98747.78;5026942;28;124336;-78
2023/06/21 07:32:51;;;;;;;;;;;26.20;90.30;;;26.90;49.50;98742.03;5027576;27;123353;-77
2023/06/21 07:35:18;;;;;;;;;;;26.30;90.10;;;26.91;49.37;98738.75;5024864;27;120172;-78
2023/06/21 07:37:45;;;;;;;;;;;26.30;89.80;;;26.92;49.33;98751.72;5009780;28;117818;-78
2023/06/21 07:40:12;;;;;;;;;;;26.40;89.70;;;26.92;49.46;98748.06;5014889;28;124518;-78
2023/06/21 07:42:38;;;;;;;;;;;26.40;89.30;;;26.92;49.15;98750.91;5019881;27;124172;-78
2023/06/21 07:45:05;;;;;;;;;;;26.40;89.10;;;26.91;49.31;98744.44;5027763;28;119548;-78
2023/06/21 07:47:34;;;;;;;;;;;26.50;89.00;;;26.92;48.96;98745.22;5029023;28;118326;-78
2023/06/21 07:50:03;;;;;;;;;;;26.50;88.80;;;26.92;49.23;98759.41;5027071;28;124213;-78
2023/06/21 07:52:30;;;;;;;;;;;26.50;88.60;;;26.93;48.93;98758.19;5021384;28;123964;-78
2023/06/21 07:54:57;;;;;;;;;;;26.50;88.20;;;26.92;48.61;98763.06;5025798;28;120945;-78
2023/06/21 07:57:23;;;;;;;;;;;26.50;87.90;;;26.92;48.77;98750.91;5023148;28;119714;-78
2023/06/21 07:59:50;;;;;;;;;;;26.60;87.80;;;26.93;49.14;98758.19;5008071;28;123271;-78
2023/06/21 08:02:18;;;;;;;;;;;26.40;87.80;;;26.94;49.34;98759.81;5022386;28;123963;-78
2023/06/21 08:04:45;;;;;;;;;;;26.60;88.40;;;26.93;49.44;98769.53;5028526;27;118706;-79
2023/06/21 08:07:13;;;;;;;;;;;26.60;88.70;;;26.92;49.75;98765.09;5028070;27;118062;-79
2023/06/21 08:09:39;;;;;;;;;;;26.60;88.90;;;26.92;49.65;98765.09;5029854;28;124008;-78
2023/06/21 08:12:06;;;;;;;;;;;26.60;88.90;;;26.93;49.77;98770.34;5018086;27;124050;-78
2023/06/21 08:14:34;;;;;;;;;;;26.60;88.90;;;26.93;49.88;98763.88;5024025;27;120375;-78
2023/06/21 08:17:00;;;;;;;;;;;26.60;88.70;;;26.92;49.71;98779.25;5026828;27;118800;-78
2023/06/21 08:19:26;;;;;;;;;;;26.60;88.70;;;26.91;49.98;98786.16;5037172;27;124783;-79
2023/06/21 08:21:53;;;;;;;;;;;26.60;88.70;;;26.90;49.74;98785.38;5044338;27;123903;-78
2023/06/21 08:24:19;;;;;;;;;;;26.60;88.70;;;26.90;49.61;98793.06;5022326;27;119437;-78
2023/06/21 08:26:48;;;;;;;;;;;26.60;88.70;;;26.85;49.74;98786.63;5023581;27;119057;-78
2023/06/21 08:29:14;;;;;;;;;;;26.60;88.60;;;26.82;49.81;98793.16;5024867;27;123796;-78
2023/06/21 08:31:40;;;;;;;;;;;26.60;88.60;;;26.79;49.92;98811.00;5026296;28;124358;-78
2023/06/21 08:34:06;;;;;;;;;;;26.50;88.70;;;26.73;50.28;98809.84;5024600;27;119387;-79
2023/06/21 08:36:33;;;;;;;;;;;26.40;88.90;;;26.68;50.50;98813.16;5024465;27;118703;-78
2023/06/21 08:38:59;;;;;;;;;;;26.40;89.10;;;26.64;50.75;98815.22;5014744;27;124620;-78
2023/06/21 08:41:26;;;;;;;;;;;26.40;89.30;;;26.62;50.35;98812.78;5027446;27;122867;-79
2023/06/21 08:43:54;;;;;;;;;;;26.40;89.40;;;26.60;50.76;98812.44;5023678;27;120083;-78
2023/06/21 08:46:25;;;;;;;;;;;26.40;89.60;;;26.60;50.63;98822.97;5021869;27;119627;-78
2023/06/21 08:48:54;;;;;;;;;;;26.40;89.70;;;26.60;51.25;98825.81;5024917;27;124476;-79
2023/06/21 08:51:21;;;;;;;;;;;26.40;90.00;;;26.59;50.97;98824.97;5023762;27;123307;-78
2023/06/21 08:53:57;;;;;;;;;;;26.30;90.00;;;26.59;51.11;98832.69;5024119;27;119370;-78
2023/06/21 08:56:28;;;;;;;;;;;26.30;90.10;;;26.53;51.32;98832.31;5025356;27;118846;-79
2023/06/21 08:59:01;;;;;;;;;;;26.30;90.20;;;26.49;51.18;98856.22;5028939;27;124659;-78
2023/06/21 09:01:34;;;;;;;;;;;26.30;90.20;;;26.43;51.23;98855.88;5015149;27;124186;-79
2023/06/21 09:04:04;;;;;;;;;;;26.20;90.20;;;26.35;51.71;98860.78;5025274;28;119409;-78
2023/06/21 09:06:33;;;;;;;;;;;26.20;90.20;;;26.27;51.36;98856.41;5011393;28;118434;-79
2023/06/21 09:08:59;;;;;;;;;;;26.10;90.20;;;26.20;51.51;98843.13;5023562;27;124947;-78
2023/06/21 09:11:26;;;;;;;;;;;26.00;90.20;;;26.16;51.56;98838.69;5025926;28;124353;-78
2023/06/21 09:13:53;;;;;;;;;;;26.00;90.20;;;26.16;51.76;98844.34;5023773;27;119434;-78
2023/06/21 09:16:19;;;;;;;;;;;26.00;90.40;;;26.14;51.85;98830.63;5024713;27;118840;-78
2023/06/21 09:18:50;;;;;;;;;;;26.00;90.40;;;26.14;52.19;98815.63;5023369;27;124783;-76
2023/06/21 09:21:17;;;;;;;;;;;26.00;90.50;;;26.15;52.21;98800.28;5009572;27;122468;-77
2023/06/21 09:23:46;;;;;;;;;;;26.00;90.60;;;26.15;51.98;98778.41;5013667;27;119736;-77
2023/06/21 09:26:12;;;;;;;;;;;26.00;90.70;;;26.18;52.47;98771.13;5010847;28;118061;-78
2023/06/21 09:28:38;;;;;;;;;;;26.00;90.90;;;26.20;52.91;98794.16;5017550;27;124091;-78
2023/06/21 09:31:05;;;;;;;;;;;26.00;91.20;;;26.21;53.30;98809.94;5024213;27;124517;-76
2023/06/21 09:33:31;;;;;;;;;;;25.90;91.50;;;26.18;54.13;98833.44;5020881;27;120264;-77
2023/06/21 09:35:57;;;;;;;;;;;26.00;91.70;;;26.17;53.73;98843.16;5025607;27;120375;-77
2023/06/21 09:38:24;;;;;;;;;;;25.90;91.90;;;26.14;54.35;98833.47;5017960;27;123996;-77
2023/06/21 09:40:54;;;;;;;;;;;25.90;92.00;;;26.13;54.22;98811.22;5024547;27;124032;-77
2023/06/21 09:43:21;;;;;;;;;;;25.90;92.20;;;26.13;54.89;98763.06;5023792;27;119599;-78
2023/06/21 09:46:04;;;;;;;;;;;25.90;92.70;;;26.06;54.98;98752.63;5024393;27;119108;-78
2023/06/21 09:48:32;;;;;;;;;;;25.80;92.70;;;26.04;55.83;98765.59;5008516;27;123409;-77
2023/06/21 09:51:01;;;;;;;;;;;25.80;93.00;;;26.00;55.86;98777.72;5019000;27;124869;-78
2023/06/21 09:53:27;;;;;;;;;;;25.80;93.20;;;25.97;56.29;98789.88;5015654;27;119465;-78
2023/06/21 09:55:55;;;;;;;;;;;25.80;93.30;;;25.94;56.06;98801.25;5024147;27;118631;-78
2023/06/21 09:58:27;;;;;;;;;;;25.80;93.40;;;25.90;56.54;98798.47;5015801;27;123247;-76
2023/06/21 10:00:56;;;;;;;;;;;25.70;93.50;;;25.87;56.58;98795.63;5024807;27;123933;-78
2023/06/21 10:03:26;;;;;;;;;;;25.70;93.60;;;25.86;56.38;98809.00;5023245;27;119412;-76
2023/06/21 10:05:58;;;;;;;;;;;25.70;93.80;;;25.83;57.23;98837.31;5027838;27;117898;-76
2023/06/21 10:08:26;;;;;;;;;;;25.60;93.90;;;25.77;57.01;98862.41;5006842;28;123344;-76
2023/06/21 10:10:55;;;;;;;;;;;25.60;94.00;;;25.71;57.02;98876.19;5014929;27;124039;-78
2023/06/21 10:13:37;;;;;;;;;;;24.40;93.60;;;25.63;57.63;98882.28;5006742;27;119135;-77
2023/06/21 10:16:04;;;;;;;;;;;25.50;94.20;;;25.55;57.63;98882.34;5021728;27;118786;-78
2023/06/21 10:18:31;;;;;;;;;;;25.40;94.40;;;25.50;58.42;98873.47;5010265;28;123072;-78
2023/06/21 10:21:06;;;;;;;;;;;25.40;94.60;;;25.46;58.61;98881.97;5024619;27;124016;-76
2023/06/21 10:23:37;;;;;;;;;;;25.30;94.70;;;25.41;58.59;98893.69;5009968;27;121018;-76
2023/06/21 10:26:12;;;;;;;;;;;25.30;94.90;;;25.35;58.50;98895.34;5039825;27;119715;-76
2023/06/21 10:28:41;;;;;;;;;;;25.20;94.90;;;25.29;58.96;98891.34;5024509;27;124374;-76
2023/06/21 10:31:14;;;;;;;;;;;25.10;95.10;;;25.26;59.02;98892.16;5014246;28;123948;-75
2023/06/21 10:33:40;;;;;;;;;;;25.10;95.20;;;25.22;59.43;98899.84;5021713;27;119900;-76
2023/06/21 10:36:13;;;;;;;;;;;25.10;95.40;;;25.19;59.56;98897.81;5023780;27;118709;-78
2023/06/21 10:38:49;;;;;;;;;;;25.10;95.50;;;25.16;59.14;98899.44;5005626;28;123368;-78
2023/06/21 10:41:17;;;;;;;;;;;25.00;95.50;;;25.10;59.09;98895.41;5027999;27;123736;-77
2023/06/21 10:43:46;;;;;;;;;;;24.90;95.50;;;25.08;59.29;98904.28;5023090;27;120014;-77
2023/06/21 10:46:12;;;;;;;;;;;24.90;95.50;;;25.10;59.03;98901.88;5016479;28;118506;-76
2023/06/21 10:48:39;;;;;;;;;;;24.90;95.60;;;25.13;59.78;98911.56;5022417;27;123117;-77
2023/06/21 10:51:06;;;;;;;;;;;24.90;95.80;;;25.18;59.63;98905.50;5019664;27;123960;-77
2023/06/21 10:53:33;;;;;;;;;;;24.90;96.00;;;25.24;59.81;98900.25;5013269;27;119639;-77
2023/06/21 10:56:01;;;;;;;;;;;24.90;96.10;;;25.27;59.53;98910.72;5006953;28;117808;-77
2023/06/21 10:58:30;;;;;;;;;;;25.00;96.20;;;25.33;59.76;98909.09;5022007;27;123278;-77
2023/06/21 11:00:57;;;;;;;;;;;25.00;96.30;;;25.41;59.79;98909.88;5022713;27;124207;-76
2023/06/21 11:03:26;;;;;;;;;;;25.00;96.50;;;25.47;59.50;98911.03;5004694;27;119443;-77
2023/06/21 11:05:56;;;;;;;;;;;25.10;96.40;;;25.50;59.11;98902.56;5022448;27;118992;-76
2023/06/21 11:08:30;;;;;;;;;;;25.10;96.30;;;25.56;59.23;98905.78;5015244;27;124570;-77
2023/06/21 11:10:56;;;;;;;;;;;25.20;96.20;;;25.61;58.62;98904.56;5021893;27;123956;-76
2023/06/21 11:13:37;;;;;;;;;;;25.20;96.00;;;25.64;58.20;98918.66;5005560;28;120582;-77